Holladay, Utah
Current Conditions -  °F | °C
As of 5:53 PM on Tuesday 21 Oct 2014 (Local Time) from KSLC Reporting Station
Broken Clouds Broken Clouds  
Wind Chill: 59°   Ceiling: 18000
Heat Index: 59°   Visibility: 10mi
Dew Point: 24°   Wind: 8mph
Humidity: 26%   Direction: 330°NNW
Pressure: 30.02"   Gusts: NA
Location:  40.6239°N, 111.817°W
Report Text: KSLC 212353Z 33007KT 10SM FEW075 SCT090 SCT130 BKN180 BKN220 15/M04 A3002 RMK AO2 SLP129 VIRGA E SCSL DSNT ALQDS T01501044 10172 20150 53004
Loading
Personal Weather Stations






























Interactive Weather Map
Tropical Storm Tracking
New forecast layout! Learn more

10-Day Weather Forecast

Advertisements
Track Severe Weather on mobile